Time;durP1;ratioP1;P1;durP2;ratioP2;P2;SDS_P1;SDS_P2;PMS_P1;PMS_P2;Temp;Humidity;BMP_temperature;BMP_pressure;BME280_temperature;BME280_humidity;BME280_pressure;Samples;Min_cycle;Max_cycle;Signal;HPM_P1;HPM_P2
2023/10/11 00:01:19;;;;;;;56.20;36.95;;;21.30;99.90;;;;;;5031239;28;20061;-69
2023/10/11 00:04:26;;;;;;;45.63;32.72;;;21.40;99.90;;;;;;5031021;28;20052;-69
2023/10/11 00:07:32;;;;;;;45.47;30.85;;;22.60;99.90;;;;;;5030992;28;20515;-69
2023/10/11 00:10:43;;;;;;;42.05;29.45;;;21.30;99.90;;;;;;5031170;28;20068;-69
2023/10/11 00:13:48;;;;;;;;;;;21.30;99.90;;;;;;5031388;28;20072;-70
2023/10/11 00:16:54;;;;;;;50.95;34.13;;;21.30;99.90;;;;;;5030860;28;19909;-68
2023/10/11 00:19:58;;;;;;;50.33;32.13;;;22.80;99.90;;;;;;5030859;28;20056;-70
2023/10/11 00:23:02;;;;;;;51.05;32.78;;;21.30;99.90;;;;;;5030880;28;20056;-69
2023/10/11 00:26:06;;;;;;;43.50;30.50;;;21.20;99.90;;;;;;5030928;28;20581;-70
2023/10/11 00:29:11;;;;;;;45.38;30.45;;;21.10;99.90;;;;;;5030962;28;20056;-69
2023/10/11 00:32:15;;;;;;;43.92;31.20;;;21.10;99.90;;;;;;5031194;28;20044;-68
2023/10/11 00:35:19;;;;;;;45.13;33.00;;;21.10;99.90;;;;;;5030924;28;20048;-68
2023/10/11 00:38:31;;;;;;;50.33;34.78;;;21.10;99.90;;;;;;5029906;28;20044;-69
2023/10/11 00:41:39;;;;;;;47.17;32.20;;;21.20;99.90;;;;;;5030994;28;20048;-69
2023/10/11 00:44:44;;;;;;;55.13;32.60;;;21.10;99.90;;;;;;5030320;28;20535;-68
2023/10/11 00:47:51;;;;;;;48.65;32.75;;;21.20;99.90;;;;;;5030926;28;20045;-68
2023/10/11 00:50:56;;;;;;;45.53;32.85;;;21.30;99.90;;;;;;5031057;28;20060;-69
2023/10/11 00:54:02;;;;;;;53.95;33.60;;;21.20;99.90;;;;;;5030774;28;20049;-69
2023/10/11 00:57:07;;;;;;;54.83;34.55;;;21.10;99.90;;;;;;5030428;28;20044;-69
2023/10/11 01:00:13;;;;;;;51.40;32.92;;;21.00;99.90;;;;;;5029733;28;20068;-69
2023/10/11 01:03:17;;;;;;;50.42;33.60;;;21.00;99.90;;;;;;5030789;28;20056;-68
2023/10/11 01:06:25;;;;;;;49.15;34.45;;;21.00;99.90;;;;;;5030902;28;20049;-69
2023/10/11 01:09:29;;;;;;;51.22;34.40;;;21.10;99.90;;;;;;5030837;28;20049;-69
2023/10/11 01:12:34;;;;;;;50.65;33.55;;;21.00;99.90;;;;;;5029731;28;20048;-70
2023/10/11 01:15:38;;;;;;;49.38;33.55;;;21.00;99.90;;;;;;5034392;28;20060;-70
2023/10/11 01:18:42;;;;;;;47.53;32.60;;;21.00;99.90;;;;;;5034777;28;20056;-70
2023/10/11 01:21:48;;;;;;;43.50;32.38;;;21.10;99.90;;;;;;5033463;28;20404;-70
2023/10/11 01:24:54;;;;;;;50.63;33.60;;;21.00;99.90;;;;;;5034405;28;20080;-69
2023/10/11 01:27:59;;;;;;;53.78;34.90;;;20.90;99.90;;;;;;5033561;28;20060;-69
2023/10/11 01:31:10;;;;;;;54.70;34.78;;;20.90;99.90;;;;;;5033322;28;20091;-68
2023/10/11 01:34:14;;;;;;;54.90;33.83;;;20.60;99.90;;;;;;5034153;28;20060;-70
2023/10/11 01:37:18;;;;;;;44.08;32.33;;;22.20;99.90;;;;;;5033280;28;20048;-69
2023/10/11 01:40:24;;;;;;;44.92;31.67;;;20.80;99.90;;;;;;5034297;28;20044;-69
2023/10/11 01:43:29;;;;;;;46.67;31.15;;;20.70;99.90;;;;;;5033738;28;20507;-68
2023/10/11 01:46:36;;;;;;;48.53;30.85;;;20.80;99.90;;;;;;5033227;28;20104;-69
2023/10/11 01:49:39;;;;;;;44.15;30.65;;;20.80;99.90;;;;;;5034145;28;20049;-69
2023/10/11 01:52:47;;;;;;;50.20;32.58;;;20.80;99.90;;;;;;5033896;28;20036;-69
2023/10/11 01:55:54;;;;;;;52.75;31.88;;;20.80;99.90;;;;;;5032983;28;20044;-69
2023/10/11 01:59:00;;;;;;;43.33;30.85;;;20.80;99.90;;;;;;5032986;28;20044;-69
2023/10/11 02:02:09;;;;;;;42.22;31.40;;;20.80;99.90;;;;;;5032936;28;20049;-69
2023/10/11 02:05:15;;;;;;;45.40;31.45;;;20.80;99.90;;;;;;5033590;28;20052;-68
2023/10/11 02:08:19;;;;;;;44.60;30.50;;;20.70;99.90;;;;;;5032799;28;20048;-69
2023/10/11 02:11:29;;;;;;;46.28;30.08;;;20.70;99.90;;;;;;5033778;28;20045;-70
2023/10/11 02:14:37;;;;;;;42.35;30.13;;;21.00;99.90;;;;;;5033335;28;20048;-70
2023/10/11 02:17:41;;;;;;;47.60;31.55;;;20.90;99.90;;;;;;5033228;28;20041;-70
2023/10/11 02:20:46;;;;;;;40.05;30.90;;;20.90;99.90;;;;;;5032579;28;20044;-69
2023/10/11 02:23:50;;;;;;;45.67;30.17;;;21.90;99.90;;;;;;5033143;28;20128;-68
2023/10/11 02:26:54;;;;;;;43.78;29.83;;;20.90;99.90;;;;;;5032337;28;20040;-69
2023/10/11 02:30:01;;;;;;;45.15;29.50;;;20.80;99.90;;;;;;5032215;28;20048;-69
2023/10/11 02:33:07;;;;;;;47.10;30.58;;;21.00;99.90;;;;;;5033116;28;20044;-69
2023/10/11 02:36:18;;;;;;;46.03;30.52;;;21.20;99.90;;;;;;5032922;28;20060;-69
2023/10/11 02:39:31;;;;;;;44.30;30.87;;;20.90;99.90;;;;;;5032419;28;20052;-69
2023/10/11 02:42:36;;;;;;;50.40;30.38;;;20.70;99.90;;;;;;5033059;28;20049;-69
2023/10/11 02:45:40;;;;;;;39.75;28.13;;;20.70;99.90;;;;;;5031988;28;20052;-69
2023/10/11 02:48:46;;;;;;;46.42;28.63;;;20.70;99.90;;;;;;5033101;28;20057;-70
2023/10/11 02:51:52;;;;;;;39.65;27.58;;;20.80;99.90;;;;;;5032865;28;20048;-69
2023/10/11 02:54:59;;;;;;;39.75;28.17;;;20.90;99.90;;;;;;5032510;28;20040;-69
2023/10/11 02:58:08;;;;;;;36.47;28.58;;;20.90;99.90;;;;;;5032476;28;20040;-69
2023/10/11 03:01:20;;;;;;;38.17;28.33;;;19.20;99.90;;;;;;5032748;28;20044;-69
2023/10/11 03:04:27;;;;;;;41.50;28.90;;;20.70;99.90;;;;;;5031859;28;20076;-69
2023/10/11 03:07:33;;;;;;;39.72;28.13;;;20.60;99.90;;;;;;5031866;28;20041;-68
2023/10/11 03:10:43;;;;;;;38.83;27.45;;;20.60;99.90;;;;;;5031643;28;20048;-69
2023/10/11 03:13:47;;;;;;;39.75;27.92;;;20.60;99.90;;;;;;5032223;28;20064;-69
2023/10/11 03:16:58;;;;;;;46.22;29.45;;;20.50;99.90;;;;;;5031486;28;20052;-68
2023/10/11 03:20:06;;;;;;;40.28;26.52;;;20.00;99.90;;;;;;5032442;28;20049;-69
2023/10/11 03:23:13;;;;;;;37.88;26.98;;;21.70;99.90;;;;;;5031779;28;20048;-69
2023/10/11 03:29:35;;;;;;;40.55;26.90;;;20.30;99.90;;;;;;5031787;28;20120;-69
2023/10/11 03:32:41;;;;;;;36.35;26.90;;;20.20;99.90;;;;;;5031933;28;20052;-69
2023/10/11 03:35:45;;;;;;;38.92;25.73;;;20.50;99.90;;;;;;5031773;28;20044;-68
2023/10/11 03:38:53;;;;;;;35.75;25.92;;;;;;;;;;5031210;28;20499;-69
2023/10/11 03:45:16;;;;;;;44.75;26.63;;;19.90;99.90;;;;;;5031882;28;20056;-69
2023/10/11 03:48:21;;;;;;;33.75;26.23;;;20.10;99.90;;;;;;5031372;28;20040;-67
2023/10/11 03:51:25;;;;;;;37.88;26.33;;;20.00;99.90;;;;;;5031616;28;20044;-68
2023/10/11 03:54:29;;;;;;;34.83;26.35;;;18.90;99.90;;;;;;5031311;28;20045;-69
2023/10/11 03:57:36;;;;;;;36.25;26.73;;;20.00;99.90;;;;;;5031530;28;20048;-69
2023/10/11 04:00:46;;;;;;;38.10;25.85;;;20.10;99.90;;;;;;5031647;28;20090;-69
2023/10/11 04:03:53;;;;;;;43.55;25.95;;;20.00;99.90;;;;;;5031437;28;20059;-68
2023/10/11 04:07:04;;;;;;;39.60;26.70;;;20.10;99.90;;;;;;5031276;28;20044;-68
2023/10/11 04:10:19;;;;;;;38.72;26.95;;;20.10;99.90;;;;;;5031582;28;20056;-69
2023/10/11 04:13:25;;;;;;;43.25;29.08;;;20.00;99.90;;;;;;5031064;28;20049;-69
2023/10/11 04:16:29;;;;;;;37.25;27.35;;;20.10;99.90;;;;;;5031318;28;20044;-68
2023/10/11 04:19:34;;;;;;;38.33;26.45;;;21.30;99.90;;;;;;5030969;28;20520;-69
2023/10/11 04:22:49;;;;;;;36.70;26.85;;;19.30;99.90;;;;;;5031357;28;20100;-69
2023/10/11 04:25:55;;;;;;;41.60;27.77;;;20.10;99.90;;;;;;5031103;28;20401;-68
2023/10/11 04:29:18;;;;;;;42.50;27.23;;;20.00;99.90;;;;;;5030951;28;20120;-68
2023/10/11 04:35:57;;;;;;;38.75;26.20;;;19.90;99.90;;;;;;5030831;28;20108;-68
2023/10/11 04:39:14;;;;;;;44.97;27.42;;;20.10;99.90;;;;;;5031229;28;20053;-69
2023/10/11 04:42:19;;;;;;;35.70;27.00;;;20.00;99.90;;;;;;5031151;28;20040;-68
2023/10/11 04:45:29;;;;;;;35.55;27.17;;;20.00;99.90;;;;;;5030833;28;20056;-68
2023/10/11 04:48:36;;;;;;;44.38;27.33;;;20.10;99.90;;;;;;5032060;28;20037;-68
2023/10/11 04:51:41;;;;;;;48.47;27.25;;;20.10;99.90;;;;;;5037286;28;20044;-70
2023/10/11 04:54:54;;;;;;;42.53;28.92;;;20.10;99.90;;;;;;5037591;28;20049;-68
2023/10/11 04:58:04;;;;;;;44.60;28.95;;;19.70;99.90;;;;;;5037395;28;20056;-69
2023/10/11 05:01:11;;;;;;;42.40;29.02;;;19.90;99.90;;;;;;5037191;28;20028;-68
2023/10/11 05:04:26;;;;;;;43.15;28.83;;;20.00;99.90;;;;;;5037092;28;20057;-69
2023/10/11 05:07:32;;;;;;;44.70;27.65;;;19.90;99.90;;;;;;5037012;28;20044;-70
2023/10/11 05:10:43;;;;;;;47.78;28.75;;;20.90;99.90;;;;;;5037486;28;20060;-69
2023/10/11 05:13:59;;;;;;;58.97;33.65;;;;;;;;;;5036808;28;20062;-70
2023/10/11 05:20:23;;;;;;;45.50;27.15;;;19.70;99.90;;;;;;5036931;28;20456;-70
2023/10/11 05:23:41;;;;;;;36.67;25.73;;;20.00;99.90;;;;;;5036935;28;20139;-69
2023/10/11 05:27:02;;;;;;;44.90;28.13;;;19.50;99.90;;;;;;5037115;28;20124;-68
2023/10/11 05:34:29;;;;;;;55.60;31.67;;;19.70;99.90;;;;;;5036647;28;20389;-61
2023/10/11 05:53:30;;;;;;;61.38;31.85;;;20.80;99.90;;;;;;5035890;28;20045;-61
2023/10/11 05:56:38;;;;;;;53.92;37.28;;;20.90;99.90;;;;;;5035930;28;20052;-61
2023/10/11 05:59:47;;;;;;;50.72;33.85;;;21.20;99.90;;;;;;5035560;28;20052;-60
2023/10/11 06:02:52;;;;;;;50.50;31.13;;;21.60;99.90;;;;;;5032849;28;20052;-61
2023/10/11 06:05:56;;;;;;;46.10;29.73;;;21.90;99.60;;;;;;5032296;28;20057;-60
2023/10/11 06:09:01;;;;;;;35.38;26.55;;;22.40;99.20;;;;;;5032518;28;20036;-60
2023/10/11 06:12:22;;;;;;;37.05;25.15;;;22.70;98.40;;;;;;5032512;28;20056;-60
2023/10/11 06:15:26;;;;;;;47.65;26.33;;;23.00;97.70;;;;;;5032381;28;20052;-61
2023/10/11 06:18:39;;;;;;;44.20;26.83;;;23.10;97.00;;;;;;5032489;28;20056;-61
2023/10/11 06:21:56;;;;;;;47.10;26.02;;;23.00;96.90;;;;;;5031855;28;20052;-61
2023/10/11 06:25:07;;;;;;;54.70;28.73;;;22.80;97.30;;;;;;5031236;28;20056;-61
2023/10/11 06:28:14;;;;;;;53.67;26.92;;;22.80;97.50;;;;;;5032023;28;20496;-61
2023/10/11 06:31:18;;;;;;;61.25;28.35;;;22.80;97.60;;;;;;5032074;28;20397;-61
2023/10/11 06:37:26;;;;;;;51.75;24.65;;;23.00;97.40;;;;;;5032114;28;20048;-60
2023/10/11 06:40:38;;;;;;;48.65;25.92;;;23.00;97.20;;;;;;5032321;28;20048;-60
2023/10/11 06:43:45;;;;;;;45.28;25.33;;;23.00;97.00;;;;;;5032141;28;20468;-60
2023/10/11 06:46:50;;;;;;;40.05;23.13;;;22.90;97.20;;;;;;5032169;28;20052;-60
2023/10/11 06:49:56;;;;;;;36.25;24.23;;;23.00;97.40;;;;;;5032447;28;20044;-60
2023/10/11 06:53:03;;;;;;;48.05;26.80;;;23.00;97.50;;;;;;5031725;28;20045;-60
2023/10/11 06:56:07;;;;;;;34.42;22.75;;;23.30;97.10;;;;;;5031640;28;20048;-61
2023/10/11 06:59:14;;;;;;;53.35;25.77;;;23.30;97.30;;;;;;5031598;28;20045;-62
2023/10/11 07:02:18;;;;;;;51.35;25.67;;;23.40;97.00;;;;;;5032252;28;20048;-61
2023/10/11 07:05:25;;;;;;;38.28;24.30;;;23.40;97.30;;;;;;5032035;28;20045;-62
2023/10/11 07:08:32;;;;;;;35.60;23.85;;;23.60;97.20;;;;;;5031682;28;20516;-61
2023/10/11 07:11:43;;;;;;;44.55;26.40;;;23.70;97.00;;;;;;5031326;28;20052;-62
2023/10/11 07:14:49;;;;;;;38.30;25.48;;;23.90;96.90;;;;;;5031379;28;20061;-62
2023/10/11 07:17:54;;;;;;;41.55;24.55;;;24.10;96.70;;;;;;5031518;28;20393;-62
2023/10/11 07:21:17;;;;;;;41.97;23.38;;;24.20;96.60;;;;;;5031452;28;20045;-61
2023/10/11 07:24:40;;;;;;;39.95;26.38;;;24.30;96.30;;;;;;5031113;28;20164;-61
2023/10/11 07:27:44;;;;;;;48.45;27.27;;;24.40;96.20;;;;;;5031287;28;20040;-61
2023/10/11 07:30:48;;;;;;;34.15;24.00;;;24.30;96.10;;;;;;5031084;28;20048;-62
2023/10/11 07:33:55;;;;;;;33.53;23.77;;;24.10;96.60;;;;;;5031412;28;20044;-61
2023/10/11 07:37:03;;;;;;;32.90;22.67;;;23.90;96.70;;;;;;5030995;28;20068;-61
2023/10/11 07:40:12;;;;;;;39.70;24.58;;;23.90;96.80;;;;;;5031117;28;20049;-61
2023/10/11 07:43:16;;;;;;;34.67;23.45;;;24.10;96.70;;;;;;5030771;28;20056;-63
2023/10/11 07:46:20;;;;;;;42.67;27.73;;;24.20;96.60;;;;;;5030673;28;20061;-61
2023/10/11 07:49:24;;;;;;;33.45;22.02;;;24.20;96.60;;;;;;5031239;28;20045;-63
2023/10/11 07:52:29;;;;;;;29.58;21.90;;;24.20;96.70;;;;;;5030874;28;20045;-61
2023/10/11 07:55:33;;;;;;;35.20;22.50;;;24.20;96.90;;;;;;5031455;28;20040;-61
2023/10/11 07:58:44;;;;;;;49.55;31.02;;;24.60;96.70;;;;;;5031066;28;20053;-61
2023/10/11 08:01:48;;;;;;;44.33;27.08;;;24.80;96.00;;;;;;5030769;28;20049;-63
2023/10/11 08:04:53;;;;;;;35.28;25.23;;;24.90;96.20;;;;;;5030601;28;20405;-62
2023/10/11 08:07:57;;;;;;;35.85;22.40;;;25.10;96.00;;;;;;5030693;28;20757;-61
2023/10/11 08:11:06;;;;;;;49.00;25.15;;;25.10;95.80;;;;;;5030424;28;20049;-61
2023/10/11 08:14:15;;;;;;;34.95;21.85;;;25.50;95.50;;;;;;5030635;28;20056;-61
2023/10/11 08:17:20;;;;;;;46.42;26.70;;;25.60;95.40;;;;;;5030597;28;20041;-62
2023/10/11 08:20:28;;;;;;;32.47;22.77;;;25.70;95.00;;;;;;5030630;28;20056;-61
2023/10/11 08:23:32;;;;;;;32.83;22.30;;;25.90;94.90;;;;;;5029896;28;20053;-61
2023/10/11 08:26:42;;;;;;;29.48;20.73;;;26.00;94.60;;;;;;5030226;28;20049;-61
2023/10/11 08:29:46;;;;;;;25.90;18.30;;;25.90;94.80;;;;;;5030318;28;20052;-61
2023/10/11 08:32:51;;;;;;;27.67;19.95;;;26.00;94.90;;;;;;5029258;28;20714;-61
2023/10/11 08:35:55;;;;;;;31.48;21.25;;;26.20;94.50;;;;;;5030366;28;20041;-61
2023/10/11 08:39:06;;;;;;;23.38;17.58;;;26.30;94.30;;;;;;5030474;28;20044;-62
2023/10/11 08:42:14;;;;;;;;;;;25.60;94.40;;;;;;5030910;28;20060;-61
2023/10/11 08:45:28;;;;;;;25.38;15.98;;;26.20;94.50;;;;;;5030218;28;20299;-61
2023/10/11 08:48:38;;;;;;;29.52;17.20;;;26.40;94.60;;;;;;5030476;28;20052;-60
2023/10/11 08:51:42;;;;;;;21.52;14.68;;;26.50;94.40;;;;;;5030284;28;20252;-61
2023/10/11 08:54:47;;;;;;;22.23;16.17;;;26.60;94.40;;;;;;5029939;28;20048;-61
2023/10/11 08:57:53;;;;;;;19.85;13.25;;;26.70;94.10;;;;;;5030260;28;20069;-64
2023/10/11 09:00:59;;;;;;;18.80;13.40;;;26.80;94.20;;;;;;5029232;28;20507;-60
2023/10/11 09:04:11;;;;;;;18.67;13.13;;;26.90;94.00;;;;;;5030127;28;20060;-61
2023/10/11 09:07:30;;;;;;;17.48;12.57;;;27.00;93.90;;;;;;5030002;28;20052;-61
2023/10/11 09:10:34;;;;;;;17.15;13.18;;;27.10;93.50;;;;;;5030132;28;20057;-61
2023/10/11 09:13:39;;;;;;;15.63;12.88;;;27.20;93.50;;;;;;5029669;28;20381;-61
2023/10/11 09:16:43;;;;;;;22.02;13.88;;;27.30;93.60;;;;;;5029615;28;20045;-60
2023/10/11 09:19:51;;;;;;;20.38;13.43;;;27.40;93.40;;;;;;5029798;28;20064;-61
2023/10/11 09:23:00;;;;;;;20.55;13.20;;;27.40;93.30;;;;;;5029818;28;20093;-61
2023/10/11 09:26:07;;;;;;;21.83;13.75;;;27.50;93.20;;;;;;5029782;28;20053;-60
2023/10/11 09:29:24;;;;;;;21.30;12.60;;;27.60;92.50;;;;;;5029674;28;20048;-60
2023/10/11 09:32:32;;;;;;;22.92;14.73;;;27.70;92.60;;;;;;5029951;28;20056;-60
2023/10/11 09:35:36;;;;;;;19.50;13.35;;;27.60;92.80;;;;;;5030044;28;20144;-61
2023/10/11 09:38:41;;;;;;;23.83;13.10;;;27.70;92.60;;;;;;5033777;28;20053;-60
2023/10/11 09:41:52;;;;;;;24.20;16.15;;;27.80;92.80;;;;;;5033581;28;20496;-60
2023/10/11 09:44:58;;;;;;;;;;;27.90;92.10;;;;;;5033684;28;20501;-61
2023/10/11 09:48:05;;;;;;;20.80;14.60;;;27.90;92.50;;;;;;5033227;28;19909;-62
2023/10/11 09:51:13;;;;;;;27.52;15.52;;;27.90;92.50;;;;;;5033259;28;20504;-61
2023/10/11 09:54:17;;;;;;;24.83;15.75;;;28.00;92.20;;;;;;5033148;28;20056;-60
2023/10/11 09:57:48;;;;;;;26.80;15.60;;;27.90;91.60;;;;;;5031732;28;20496;-61
2023/10/11 10:01:08;;;;;;;18.83;14.48;;;27.50;91.50;;;;;;5032178;28;20052;-60
2023/10/11 10:04:12;;;;;;;24.33;16.00;;;28.10;91.80;;;;;;5032164;28;20264;-61
2023/10/11 10:07:25;;;;;;;20.75;16.23;;;28.10;92.00;;;;;;5032122;28;20390;-61
2023/10/11 10:10:52;;;;;;;21.17;14.73;;;28.10;91.60;;;;;;5031993;28;20052;-61
2023/10/11 10:14:23;;;;;;;19.17;13.65;;;29.30;92.00;;;;;;5032457;28;20064;-60
2023/10/11 10:17:29;;;;;;;22.30;13.48;;;28.20;91.70;;;;;;5032581;28;20052;-61
2023/10/11 10:20:42;;;;;;;20.77;13.68;;;28.30;91.50;;;;;;5032763;28;20060;-64
2023/10/11 10:23:45;;;;;;;18.98;13.90;;;28.00;90.30;;;;;;5032476;28;20053;-62
2023/10/11 10:26:52;;;;;;;22.15;13.75;;;28.50;90.70;;;;;;5032699;28;20049;-62
2023/10/11 10:29:59;;;;;;;18.90;13.82;;;28.40;90.80;;;;;;5031602;28;20053;-61
2023/10/11 10:33:21;;;;;;;20.85;15.90;;;28.50;90.80;;;;;;5032449;28;20045;-61
2023/10/11 10:36:28;;;;;;;18.25;13.65;;;28.40;90.70;;;;;;5032118;28;20044;-61
2023/10/11 10:39:47;;;;;;;16.40;13.50;;;28.90;91.10;;;;;;5032545;28;20056;-60
2023/10/11 10:43:14;;;;;;;20.75;14.27;;;28.40;91.10;;;;;;5032100;28;20048;-59
2023/10/11 10:46:18;;;;;;;22.30;15.35;;;28.50;91.10;;;;;;5031254;28;20056;-60
2023/10/11 10:49:42;;;;;;;32.80;17.13;;;28.50;91.00;;;;;;5031733;28;20032;-60
2023/10/11 10:52:51;;;;;;;18.23;14.18;;;28.40;90.60;;;;;;5031933;28;20041;-60
2023/10/11 10:55:58;;;;;;;16.55;12.15;;;28.40;90.50;;;;;;5031712;28;20127;-61
2023/10/11 10:59:12;;;;;;;20.50;14.85;;;28.30;90.40;;;;;;5032024;28;20068;-60
2023/10/11 11:02:19;;;;;;;34.17;20.40;;;28.30;90.60;;;;;;5031665;28;20044;-60
2023/10/11 11:05:29;;;;;;;21.92;14.90;;;28.20;90.70;;;;;;5031443;28;20102;-60
2023/10/11 11:08:37;;;;;;;24.65;15.95;;;28.20;91.00;;;;;;5031378;28;20045;-59
2023/10/11 11:11:46;;;;;;;22.80;14.23;;;28.00;90.80;;;;;;5031374;28;20401;-59
2023/10/11 11:14:58;;;;;;;19.00;14.18;;;28.10;91.10;;;;;;5031309;28;20057;-59
2023/10/11 11:18:03;;;;;;;19.38;13.85;;;28.20;91.30;;;;;;5031413;28;20059;-59
2023/10/11 11:21:19;;;;;;;16.40;13.05;;;28.20;90.80;;;;;;5031311;28;20044;-59
2023/10/11 11:24:27;;;;;;;21.25;14.23;;;28.10;91.00;;;;;;5031464;28;20060;-60
2023/10/11 11:27:35;;;;;;;26.20;17.15;;;28.10;90.60;;;;;;5031545;28;20064;-61
2023/10/11 11:34:37;;;;;;;29.52;16.35;;;28.00;90.80;;;;;;5032347;28;20065;-60
2023/10/11 11:38:01;;;;;;;21.63;15.45;;;27.90;90.50;;;;;;5031326;28;20068;-60
2023/10/11 11:41:15;;;;;;;22.00;14.48;;;27.90;90.20;;;;;;5031031;28;20401;-59
2023/10/11 11:44:20;;;;;;;21.92;14.75;;;27.80;90.10;;;;;;5029975;28;20048;-59
2023/10/11 11:47:25;;;;;;;17.05;13.77;;;27.80;90.10;;;;;;5031100;28;20512;-59
2023/10/11 11:50:39;;;;;;;16.90;14.38;;;27.80;90.10;;;;;;5030960;28;20504;-60
2023/10/11 11:53:44;;;;;;;24.60;15.07;;;27.80;90.20;;;;;;5030825;28;20036;-59
2023/10/11 11:56:54;;;;;;;23.38;14.95;;;27.90;90.40;;;;;;5030821;28;20075;-59
2023/10/11 12:00:01;;;;;;;26.17;14.70;;;28.00;90.20;;;;;;5030353;28;20052;-60
2023/10/11 12:03:12;;;;;;;18.55;14.38;;;27.90;90.10;;;;;;5031029;28;20052;-59
2023/10/11 12:06:21;;;;;;;23.58;14.45;;;27.90;90.30;;;;;;5030376;28;20044;-59
2023/10/11 12:09:33;;;;;;;24.27;14.60;;;27.90;90.20;;;;;;5030706;28;20049;-59
2023/10/11 12:12:37;;;;;;;23.73;14.52;;;27.90;90.10;;;;;;5029609;28;20057;-60
2023/10/11 12:15:41;;;;;;;20.83;15.07;;;27.90;90.40;;;;;;5030355;28;20048;-60
2023/10/11 12:18:45;;;;;;;21.70;14.65;;;27.90;90.50;;;;;;5028087;28;20037;-60
2023/10/11 12:21:57;;;;;;;27.92;16.25;;;27.90;90.60;;;;;;5027402;28;20044;-60
2023/10/11 12:25:07;;;;;;;33.70;18.38;;;27.90;90.70;;;;;;5026030;28;20559;-60
2023/10/11 12:28:13;;;;;;;22.60;16.07;;;27.90;91.00;;;;;;5028308;28;20064;-61
2023/10/11 12:31:16;;;;;;;22.35;15.18;;;29.90;91.50;;;;;;5028906;28;20508;-61
2023/10/11 12:34:27;;;;;;;19.65;14.32;;;27.80;90.90;;;;;;5028068;28;20048;-60
2023/10/11 12:37:32;;;;;;;20.60;14.23;;;27.80;91.20;;;;;;5029991;28;20072;-60
2023/10/11 12:40:37;;;;;;;19.10;14.00;;;27.80;91.20;;;;;;5029251;28;20044;-61
2023/10/11 12:43:41;;;;;;;26.48;17.92;;;27.70;90.60;;;;;;5030732;28;20040;-60
2023/10/11 12:46:49;;;;;;;23.83;15.05;;;27.60;90.80;;;;;;5030832;28;20057;-60
2023/10/11 12:49:53;;;;;;;21.60;14.35;;;27.60;91.10;;;;;;5030788;28;20036;-61
2023/10/11 12:52:57;;;;;;;29.63;16.60;;;27.60;91.20;;;;;;5030580;28;20591;-60
2023/10/11 12:56:00;;;;;;;21.35;14.93;;;27.60;91.40;;;;;;5030771;28;20056;-61
2023/10/11 12:59:12;;;;;;;23.70;15.38;;;27.60;91.50;;;;;;5030732;28;20045;-61
2023/10/11 13:02:21;;;;;;;24.17;15.07;;;27.60;91.20;;;;;;5030499;28;20045;-60
2023/10/11 13:05:27;;;;;;;17.70;13.95;;;27.70;91.50;;;;;;5030355;28;20053;-60
2023/10/11 13:08:33;;;;;;;19.30;13.27;;;27.60;91.50;;;;;;5030328;28;20041;-61
2023/10/11 13:11:36;;;;;;;24.35;14.75;;;27.60;91.50;;;;;;5034659;28;20594;-60
2023/10/11 13:14:41;;;;;;;21.85;14.52;;;27.60;91.50;;;;;;5034532;28;20056;-60
2023/10/11 13:17:46;;;;;;;22.27;16.10;;;27.50;91.50;;;;;;5034496;28;20045;-60
2023/10/11 13:20:49;;;;;;;25.75;17.67;;;27.60;91.70;;;;;;5033596;28;20389;-60
2023/10/11 13:23:53;;;;;;;24.88;16.33;;;27.50;91.90;;;;;;5034208;28;20394;-61
2023/10/11 13:26:58;;;;;;;19.38;13.85;;;27.50;91.80;;;;;;5034270;28;20083;-59
2023/10/11 13:30:03;;;;;;;25.83;15.00;;;27.50;91.90;;;;;;5034224;28;20409;-59
2023/10/11 13:33:09;;;;;;;19.38;14.30;;;27.50;91.80;;;;;;5033610;28;20507;-60
2023/10/11 13:36:14;;;;;;;19.88;13.52;;;27.50;91.80;;;;;;5033027;28;20057;-59
2023/10/11 13:39:26;;;;;;;19.95;12.65;;;27.60;92.10;;;;;;5033910;28;20064;-60
2023/10/11 13:42:37;;;;;;;21.25;14.13;;;27.50;92.10;;;;;;5033813;28;20040;-59
2023/10/11 13:45:46;;;;;;;20.02;14.27;;;27.50;92.40;;;;;;5033615;28;20128;-59
2023/10/11 13:48:53;;;;;;;27.52;18.17;;;27.40;92.30;;;;;;5034118;28;20062;-59
2023/10/11 13:51:58;;;;;;;20.50;15.00;;;27.40;92.50;;;;;;5033903;28;20052;-59
2023/10/11 13:55:11;;;;;;;19.52;13.48;;;27.40;92.70;;;;;;5033940;28;20049;-59
2023/10/11 13:58:15;;;;;;;20.48;14.73;;;27.30;92.50;;;;;;5033291;28;20068;-59
2023/10/11 14:04:48;;;;;;;25.58;15.18;;;27.30;92.90;;;;;;5013446;28;20044;-59
2023/10/11 14:07:54;;;;;;;18.20;14.23;;;27.20;92.80;;;;;;5033630;28;20036;-60
2023/10/11 14:11:00;;;;;;;19.13;13.40;;;27.20;93.10;;;;;;5033316;28;20047;-60
2023/10/11 14:14:09;;;;;;;18.08;13.18;;;27.20;93.00;;;;;;5033311;28;20496;-60
2023/10/11 14:17:15;;;;;;;28.25;15.23;;;27.00;92.80;;;;;;5033582;28;20052;-59
2023/10/11 14:20:23;;;;;;;23.02;13.85;;;27.10;93.10;;;;;;5032214;28;20040;-60
2023/10/11 14:23:30;;;;;;;23.50;14.27;;;27.10;93.10;;;;;;5032852;28;20052;-59
2023/10/11 14:26:34;;;;;;;21.30;13.45;;;27.00;93.20;;;;;;5032932;28;20109;-60
2023/10/11 14:29:38;;;;;;;29.63;15.65;;;26.40;93.00;;;;;;5033207;28;20045;-60
2023/10/11 14:32:47;;;;;;;24.17;16.10;;;27.00;93.30;;;;;;5033173;28;20044;-59
2023/10/11 14:35:51;;;;;;;19.00;14.43;;;27.00;93.60;;;;;;5032969;28;20049;-59
2023/10/11 14:38:55;;;;;;;20.88;14.70;;;26.90;93.40;;;;;;5032826;28;20056;-60
2023/10/11 14:41:59;;;;;;;20.70;13.45;;;26.80;93.30;;;;;;5032577;28;20052;-60
2023/10/11 14:45:03;;;;;;;25.70;15.13;;;26.90;93.40;;;;;;5032613;28;20052;-59
2023/10/11 14:48:10;;;;;;;20.08;14.50;;;26.90;93.70;;;;;;5032778;28;20041;-60
2023/10/11 14:51:17;;;;;;;26.85;15.20;;;26.80;93.80;;;;;;5032568;28;20500;-60
2023/10/11 14:54:21;;;;;;;24.67;14.23;;;26.80;93.90;;;;;;5032713;28;20421;-60
2023/10/11 14:57:25;;;;;;;22.35;14.27;;;28.00;94.40;;;;;;5032541;28;20040;-59
2023/10/11 15:00:33;;;;;;;22.88;13.27;;;26.70;94.00;;;;;;5032302;28;20061;-61
2023/10/11 15:03:37;;;;;;;25.52;14.10;;;26.70;94.10;;;;;;5031843;28;20045;-60
2023/10/11 15:06:49;;;;;;;21.27;14.02;;;26.60;94.00;;;;;;5031957;28;20064;-62
2023/10/11 15:09:52;;;;;;;32.50;16.02;;;26.70;94.30;;;;;;5032372;28;20053;-60
2023/10/11 15:12:57;;;;;;;21.65;13.93;;;26.60;94.30;;;;;;5031679;28;20068;-61
2023/10/11 15:16:03;;;;;;;32.72;16.13;;;26.60;94.30;;;;;;5032113;28;20076;-61
2023/10/11 15:19:09;;;;;;;21.92;14.35;;;26.50;94.30;;;;;;5032276;28;20124;-61
2023/10/11 15:22:15;;;;;;;21.15;14.35;;;26.40;94.20;;;;;;5031990;28;20056;-61
2023/10/11 15:25:18;;;;;;;26.23;16.08;;;25.70;94.20;;;;;;5031787;28;20060;-60
2023/10/11 15:28:23;;;;;;;24.02;17.13;;;26.40;94.50;;;;;;5031852;28;20390;-60
2023/10/11 15:31:30;;;;;;;25.27;15.80;;;26.30;94.30;;;;;;5032034;28;20060;-60
2023/10/11 15:34:39;;;;;;;26.67;14.15;;;26.30;94.30;;;;;;5031547;28;20044;-60
2023/10/11 15:37:46;;;;;;;31.02;15.27;;;26.30;94.60;;;;;;5031613;28;20061;-60
2023/10/11 15:40:58;;;;;;;28.75;14.55;;;26.20;94.50;;;;;;5031536;28;20504;-60
2023/10/11 15:44:02;;;;;;;26.48;14.98;;;26.20;94.50;;;;;;5031674;28;20049;-60
2023/10/11 15:47:06;;;;;;;25.13;15.55;;;26.20;94.80;;;;;;5031838;28;20131;-59
2023/10/11 15:50:12;;;;;;;21.88;13.45;;;26.10;94.90;;;;;;5031596;28;20048;-60
2023/10/11 15:53:16;;;;;;;28.35;15.82;;;26.10;95.00;;;;;;5031359;28;20044;-60
2023/10/11 15:56:20;;;;;;;25.35;15.20;;;26.00;95.10;;;;;;5031212;28;20378;-61
2023/10/11 15:59:24;;;;;;;24.58;14.40;;;25.90;95.20;;;;;;5031477;28;20537;-60
2023/10/11 16:02:28;;;;;;;19.60;14.38;;;25.90;95.10;;;;;;5031372;28;20049;-61
2023/10/11 16:05:32;;;;;;;25.88;15.18;;;25.90;95.30;;;;;;5030976;28;20052;-59
2023/10/11 16:08:37;;;;;;;25.25;14.10;;;25.90;95.40;;;;;;5030932;28;20500;-60
2023/10/11 16:11:42;;;;;;;30.63;15.15;;;25.80;95.50;;;;;;5031124;28;20048;-59
2023/10/11 16:14:48;;;;;;;26.77;14.57;;;25.80;95.70;;;;;;5031079;28;20052;-62
2023/10/11 16:17:51;;;;;;;27.00;14.68;;;25.70;95.80;;;;;;5031154;28;20040;-60
2023/10/11 16:20:56;;;;;;;18.33;14.00;;;25.70;95.90;;;;;;5030962;28;20531;-60
2023/10/11 16:24:00;;;;;;;28.63;15.20;;;25.60;96.00;;;;;;5030688;28;20040;-59
2023/10/11 16:27:06;;;;;;;22.38;14.48;;;25.70;96.20;;;;;;5031197;28;20053;-59
2023/10/11 16:30:13;;;;;;;33.85;15.32;;;25.50;96.30;;;;;;5030623;28;20053;-60
2023/10/11 16:33:20;;;;;;;21.83;14.00;;;25.50;96.70;;;;;;5030684;28;20060;-60
2023/10/11 16:36:24;;;;;;;28.58;13.65;;;25.50;96.90;;;;;;5030646;28;20052;-59